Time;durP1;ratioP1;P1;durP2;ratioP2;P2;SDS_P1;SDS_P2;PMS_P1;PMS_P2;Temp;Humidity;BMP_temperature;BMP_pressure;BME280_temperature;BME280_humidity;BME280_pressure;Samples;Min_cycle;Max_cycle;Signal;HPM_P1;HPM_P2
2022/09/09 00:00:17;;;;;;;;;19.80;18.00;;;;;28.50;45.62;99033.19;5068495;28;8869;-74
2022/09/09 00:03:13;;;;;;;;;14.40;14.40;;;;;28.51;45.45;99031.38;5068150;28;9627;-76
2022/09/09 00:05:49;;;;;;;;;17.20;17.00;;;;;28.51;45.56;99029.53;5069153;28;8858;-74
2022/09/09 00:08:22;;;;;;;;;18.20;16.20;;;;;28.51;45.31;99037.59;5050415;28;8850;-74
2022/09/09 00:10:59;;;;;;;;;19.80;18.20;;;;;28.60;45.49;99037.81;5085000;28;8854;-74
2022/09/09 00:13:35;;;;;;;;;19.20;18.20;;;;;28.60;45.21;99038.66;5068354;28;8924;-76
2022/09/09 00:16:13;;;;;;;;;18.60;18.20;;;;;28.61;45.40;99042.22;5084963;28;8857;-74
2022/09/09 00:18:57;;;;;;;;;17.00;17.00;;;;;28.65;44.88;99039.13;5071581;28;8854;-74
2022/09/09 00:21:33;;;;;;;;;19.00;18.40;;;;;28.58;45.23;99035.25;5053922;28;8885;-75
2022/09/09 00:24:09;;;;;;;;;20.60;19.60;;;;;28.52;45.50;99044.66;5072479;28;8854;-77
2022/09/09 00:26:43;;;;;;;;;20.00;19.40;;;;;28.57;45.38;99037.09;5082876;28;8871;-75
2022/09/09 00:29:25;;;;;;;;;18.80;18.80;;;;;28.51;45.24;99039.44;5092598;28;8871;-76
2022/09/09 00:32:06;;;;;;;;;17.80;17.80;;;;;28.54;45.07;99036.50;5092488;28;8839;-73
2022/09/09 00:34:34;;;;;;;;;16.20;16.20;;;;;28.48;45.43;99032.47;5085885;28;9020;-74
2022/09/09 00:37:04;;;;;;;;;19.20;18.40;;;;;28.48;45.77;99034.31;5070503;28;10082;-73
2022/09/09 00:39:38;;;;;;;;;19.20;17.80;;;;;28.53;45.44;99032.13;5070916;28;9651;-74
2022/09/09 00:42:15;;;;;;;;;14.60;14.60;;;;;28.58;45.42;99041.50;5074310;28;8859;-76
2022/09/09 00:44:53;;;;;;;;;17.20;17.20;;;;;28.59;45.20;99045.03;5075648;28;8856;-73
2022/09/09 00:47:39;;;;;;;;;23.00;19.40;;;;;28.60;45.36;99049.41;5092904;28;8870;-79
2022/09/09 00:50:18;;;;;;;;;19.00;18.60;;;;;28.55;45.18;99046.25;5077508;28;8878;-74
2022/09/09 00:52:58;;;;;;;;;15.80;15.40;;;;;28.51;45.19;99044.78;5084515;28;8892;-78
2022/09/09 00:55:35;;;;;;;;;21.60;19.80;;;;;28.45;45.33;99032.75;5069148;28;8847;-75
2022/09/09 00:58:22;;;;;;;;;20.20;19.20;;;;;28.38;45.45;99028.84;5067990;28;8885;-74
2022/09/09 01:00:58;;;;;;;;;21.60;20.60;;;;;28.36;45.71;99036.19;5068805;28;8873;-76
2022/09/09 01:03:35;;;;;;;;;18.40;17.00;;;;;28.36;45.46;99028.97;5084084;28;8842;-74
2022/09/09 01:06:15;;;;;;;;;21.00;20.40;;;;;28.35;45.42;99037.16;5048542;28;8862;-77
2022/09/09 01:09:13;;;;;;;;;18.00;17.40;;;;;28.26;45.52;99033.41;5067024;28;9070;-75
2022/09/09 01:11:52;;;;;;;;;17.40;17.40;;;;;28.28;45.51;99044.88;5068779;28;8888;-76
2022/09/09 01:14:40;;;;;;;;;20.00;17.80;;;;;28.21;45.53;99049.00;5083743;28;9671;-75
2022/09/09 01:17:15;;;;;;;;;21.00;18.20;;;;;28.14;45.70;99047.81;5066654;28;8896;-75
2022/09/09 01:20:03;;;;;;;;;18.60;18.60;;;;;28.17;45.96;99047.56;5066036;28;8842;-75
2022/09/09 01:22:42;;;;;;;;;20.80;19.40;;;;;28.10;45.89;99046.34;5083011;28;8956;-74
2022/09/09 01:25:23;;;;;;;;;20.40;17.80;;;;;28.15;45.82;99049.53;5066676;28;8842;-75
2022/09/09 01:28:09;;;;;;;;;20.80;20.20;;;;;28.02;46.20;99060.38;5035682;28;9587;-79
2022/09/09 01:30:41;;;;;;;;;19.40;18.40;;;;;27.95;46.19;99067.22;5100573;28;8869;-75
2022/09/09 01:33:15;;;;;;;;;16.20;16.00;;;;;27.98;46.25;99075.88;5066006;28;8862;-74
2022/09/09 01:35:51;;;;;;;;;18.40;16.40;;;;;28.02;46.23;99070.25;5083594;28;8858;-76
2022/09/09 01:38:22;;;;;;;;;19.60;18.00;;;;;28.01;45.97;99074.75;5083012;28;8858;-74
2022/09/09 01:40:54;;;;;;;;;18.20;17.80;;;;;28.03;46.03;99075.47;5089691;28;8851;-74
2022/09/09 01:43:31;;;;;;;;;19.60;18.40;;;;;28.06;46.02;99088.66;5082766;28;8878;-73
2022/09/09 01:46:02;;;;;;;;;20.00;19.60;;;;;28.07;46.00;99085.00;5082966;28;8880;-74
2022/09/09 01:48:32;;;;;;;;;19.60;18.60;;;;;28.09;45.80;99080.38;5082719;28;9626;-75
2022/09/09 01:51:04;;;;;;;;;18.00;17.60;;;;;28.09;45.80;99092.91;5083145;28;8888;-75
2022/09/09 01:53:33;;;;;;;;;17.60;17.60;;;;;28.09;45.64;99100.94;5066467;28;8851;-76
2022/09/09 01:56:12;;;;;;;;;17.20;15.60;;;;;28.13;45.27;99099.75;5080608;28;8900;-76
2022/09/09 01:58:58;;;;;;;;;15.40;15.40;;;;;28.03;44.96;99104.97;5067194;28;8846;-75
2022/09/09 02:01:37;;;;;;;;;18.40;17.20;;;;;28.02;44.99;99097.06;5085126;28;8847;-74
2022/09/09 02:04:23;;;;;;;;;18.00;17.20;;;;;28.04;45.18;99101.31;5104079;28;8831;-74
2022/09/09 02:06:56;;;;;;;;;18.80;18.00;;;;;27.99;44.79;99108.88;5023066;28;8977;-76
2022/09/09 02:09:31;;;;;;;;;15.00;14.40;;;;;27.98;44.93;99105.34;5087094;28;8961;-75
2022/09/09 02:12:08;;;;;;;;;16.60;16.00;;;;;27.97;44.72;99094.75;5087472;28;8862;-78
2022/09/09 02:14:49;;;;;;;;;16.40;16.00;;;;;27.90;44.53;99094.41;5087739;28;8878;-77
2022/09/09 02:17:25;;;;;;;;;10.40;9.40;;;;;27.96;44.59;99099.25;5088169;28;8862;-75
2022/09/09 02:20:07;;;;;;;;;18.00;16.00;;;;;27.93;44.62;99099.50;5040041;28;8838;-73
2022/09/09 02:22:52;;;;;;;;;18.40;17.40;;;;;27.94;44.42;99103.00;5072857;28;8955;-75
2022/09/09 02:25:26;;;;;;;;;18.20;18.20;;;;;27.68;44.76;99097.03;5105560;28;8895;-75
2022/09/09 02:27:59;;;;;;;;;22.60;17.60;;;;;27.37;45.33;99097.59;5086925;28;8854;-74
2022/09/09 02:30:33;;;;;;;;;17.60;16.80;;;;;27.59;45.09;99093.25;5106510;28;9429;-76
2022/09/09 02:33:07;;;;;;;;;18.80;18.20;;;;;27.68;44.82;99099.72;5109593;28;8863;-74
2022/09/09 02:35:46;;;;;;;;;18.20;16.80;;;;;27.74;44.67;99088.50;5119481;28;8972;-74
2022/09/09 02:38:18;;;;;;;;;17.00;16.80;;;;;27.34;45.68;99095.16;5092400;28;8832;-74
2022/09/09 02:41:03;;;;;;;;;15.00;14.60;;;;;27.58;45.22;99091.53;5091615;28;8889;-78
2022/09/09 02:43:33;;;;;;;;;16.40;16.20;;;;;27.56;44.92;99086.31;5107447;28;8994;-76
2022/09/09 02:46:19;;;;;;;;;18.20;16.40;;;;;27.72;44.77;99077.06;5086133;28;8861;-73
2022/09/09 02:48:56;;;;;;;;;16.20;14.00;;;;;27.78;44.82;99072.06;5070174;28;8850;-73
2022/09/09 02:51:36;;;;;;;;;16.60;15.00;;;;;27.65;45.00;99078.50;5069953;28;8927;-74
2022/09/09 02:54:12;;;;;;;;;15.40;15.40;;;;;27.76;44.83;99075.84;5062803;28;8889;-74
2022/09/09 02:56:46;;;;;;;;;15.00;13.20;;;;;27.82;44.79;99083.38;5068986;28;8858;-74
2022/09/09 02:59:16;;;;;;;;;17.00;16.80;;;;;27.90;44.62;99077.44;5018510;28;8902;-73
2022/09/09 03:01:46;;;;;;;;;15.40;15.20;;;;;27.98;44.54;99066.97;5069856;28;8862;-75
2022/09/09 03:04:15;;;;;;;;;21.20;17.00;;;;;28.03;44.45;99074.63;5085453;28;8862;-74
2022/09/09 03:06:45;;;;;;;;;18.60;17.80;;;;;27.97;44.47;99073.31;5085885;28;8858;-75
2022/09/09 03:09:20;;;;;;;;;18.60;17.00;;;;;27.88;44.67;99074.00;5069177;28;8846;-74
2022/09/09 03:11:50;;;;;;;;;19.60;17.80;;;;;27.94;44.98;99070.84;5085647;28;8858;-75
2022/09/09 03:14:21;;;;;;;;;19.20;18.60;;;;;27.94;44.89;99073.53;5102686;28;8862;-74
2022/09/09 03:16:53;;;;;;;;;18.80;16.40;;;;;27.97;44.93;99078.66;5034348;28;8849;-73
2022/09/09 03:19:22;;;;;;;;;17.60;17.00;;;;;27.86;44.77;99090.19;5018155;28;8857;-74
2022/09/09 03:21:52;;;;;;;;;14.80;14.60;;;;;27.89;44.74;99081.13;5031881;28;8908;-74
2022/09/09 03:24:21;;;;;;;;;73.75;64.50;;;;;27.86;44.69;99082.16;5048257;28;8854;-76
2022/09/09 03:26:50;;;;;;;;;51.25;42.25;;;;;27.92;44.77;99086.22;5065775;28;8943;-77
2022/09/09 03:29:19;;;;;;;;;19.60;16.00;;;;;27.90;44.68;99089.03;5064843;28;8846;-78
2022/09/09 03:31:47;;;;;;;;;17.80;17.80;;;;;27.92;44.91;99095.13;5015810;28;8868;-75
2022/09/09 03:34:17;;;;;;;;;21.40;20.40;;;;;27.94;44.75;99111.94;5048124;28;8892;-74
2022/09/09 03:36:48;;;;;;;;;17.80;17.40;;;;;27.97;44.71;99113.50;5029866;28;8861;-73
2022/09/09 03:39:17;;;;;;;;;34.20;31.80;;;;;27.98;44.77;99116.06;5063787;28;8888;-75
2022/09/09 03:41:47;;;;;;;;;26.80;24.00;;;;;27.81;45.00;99121.88;5014151;28;8838;-74
2022/09/09 03:44:16;;;;;;;;;20.20;18.60;;;;;27.79;45.06;99135.41;5030358;28;8874;-73
2022/09/09 03:46:45;;;;;;;;;18.00;18.00;;;;;27.72;45.23;99141.38;5030543;28;9611;-76
2022/09/09 03:49:15;;;;;;;;;22.20;22.20;;;;;27.78;45.21;99144.41;5030111;28;8873;-76
2022/09/09 03:51:45;;;;;;;;;18.60;18.20;;;;;27.69;45.88;99145.13;5082968;28;8840;-74
2022/09/09 03:54:15;;;;;;;;;32.60;29.60;;;;;27.34;46.91;99151.38;5084818;28;9781;-74
2022/09/09 03:56:43;;;;;;;;;34.25;29.25;;;;;27.50;46.95;99152.88;5067352;28;8993;-73
2022/09/09 03:59:14;;;;;;;;;24.80;21.00;;;;;27.38;47.36;99162.72;5064648;28;8851;-75
2022/09/09 04:01:44;;;;;;;;;18.40;18.00;;;;;26.82;49.26;99187.38;5069846;28;8843;-74
2022/09/09 04:04:12;;;;;;;;;19.40;19.00;;;;;26.90;49.40;99202.88;5069494;28;8958;-75
2022/09/09 04:06:42;;;;;;;;;22.00;19.60;;;;;26.43;50.85;99205.34;5069755;28;9617;-75
2022/09/09 04:09:11;;;;;;;;;21.80;19.20;;;;;26.71;50.68;99201.56;5049714;28;8968;-76
2022/09/09 04:11:40;;;;;;;;;22.40;18.00;;;;;26.63;52.04;99215.50;5048732;28;8885;-75
2022/09/09 04:14:09;;;;;;;;;14.80;14.80;;;;;26.24;54.69;99212.00;5032492;28;8854;-74
2022/09/09 04:16:38;;;;;;;;;21.20;19.20;;;;;26.13;57.21;99219.06;5049121;28;8850;-75
2022/09/09 04:19:07;;;;;;;;;19.80;19.00;;;;;26.02;61.09;99217.16;5032359;28;8895;-75
2022/09/09 04:21:36;;;;;;;;;46.75;38.75;;;;;25.84;61.03;99214.75;5032488;28;8901;-74
2022/09/09 04:24:05;;;;;;;;;61.25;49.25;;;;;25.79;62.41;99213.38;5046202;28;8911;-75
2022/09/09 04:26:36;;;;;;;;;28.00;24.60;;;;;25.74;62.62;99212.81;5064274;28;8842;-73
2022/09/09 04:29:06;;;;;;;;;19.00;18.80;;;;;25.58;63.09;99226.38;5064688;28;8867;-74
2022/09/09 04:31:37;;;;;;;;;23.40;19.80;;;;;25.44;64.21;99220.16;5068880;28;8866;-74
2022/09/09 04:34:06;;;;;;;;;19.40;18.40;;;;;24.98;65.62;99215.16;5070417;28;8824;-80
2022/09/09 04:36:34;;;;;;;;;22.80;20.80;;;;;24.80;66.48;99211.91;5070758;28;8851;-75
2022/09/09 04:39:06;;;;;;;;;23.40;20.40;;;;;24.81;66.89;99210.91;5070955;28;8848;-74
2022/09/09 04:41:37;;;;;;;;;20.20;18.60;;;;;24.93;67.03;99200.41;5087074;28;8882;-75
2022/09/09 04:44:07;;;;;;;;;20.40;19.40;;;;;24.99;66.23;99195.53;5089315;28;8867;-75
2022/09/09 04:46:36;;;;;;;;;21.40;20.60;;;;;24.86;67.68;99198.16;5084213;28;8960;-75
2022/09/09 04:49:05;;;;;;;;;22.00;20.80;;;;;24.81;68.35;99192.25;5050660;28;8856;-78
2022/09/09 04:51:35;;;;;;;;;21.60;20.80;;;;;24.94;67.84;99192.31;5083880;28;8846;-75
2022/09/09 04:54:04;;;;;;;;;20.20;19.80;;;;;24.81;68.01;99188.75;5068911;28;8870;-74
2022/09/09 04:56:33;;;;;;;;;23.00;20.80;;;;;24.73;67.67;99185.72;5101056;28;8862;-74
2022/09/09 04:59:04;;;;;;;;;18.00;17.80;;;;;24.38;69.08;99181.63;5079542;28;8859;-75
2022/09/09 05:01:42;;;;;;;;;22.20;19.60;;;;;24.24;69.58;99182.53;5069330;28;8874;-75
2022/09/09 05:04:12;;;;;;;;;20.00;20.00;;;;;24.46;68.34;99181.16;5049072;28;8979;-75
2022/09/09 05:06:40;;;;;;;;;24.20;21.80;;;;;24.24;69.15;99179.84;5066046;28;8882;-74
2022/09/09 05:09:09;;;;;;;;;22.00;19.40;;;;;24.30;69.43;99182.13;5046671;28;8855;-76
2022/09/09 05:11:38;;;;;;;;;19.80;19.20;;;;;24.63;68.33;99185.44;5081631;28;8869;-74
2022/09/09 05:14:24;;;;;;;;;21.60;20.20;;;;;24.73;67.85;99199.91;5081583;28;8902;-74
2022/09/09 05:16:53;;;;;;;;;19.40;17.80;;;;;24.81;67.59;99208.25;5081434;28;8870;-73
2022/09/09 05:19:23;;;;;;;;;22.80;22.60;;;;;24.68;67.93;99208.19;5081708;28;8880;-72
2022/09/09 05:21:53;;;;;;;;;22.20;21.60;;;;;25.03;67.38;99212.22;5081876;28;8851;-74
2022/09/09 05:24:27;;;;;;;;;20.00;19.00;;;;;25.21;66.72;99213.63;5059283;28;8877;-74
2022/09/09 05:26:59;;;;;;;;;28.00;24.20;;;;;25.04;66.95;99216.56;5065247;28;8982;-74
2022/09/09 05:29:29;;;;;;;;;20.80;19.60;;;;;24.92;67.51;99220.91;5082241;28;8876;-74
2022/09/09 05:31:58;;;;;;;;;24.40;22.20;;;;;25.14;66.61;99223.03;5087464;28;8850;-75
2022/09/09 05:34:27;;;;;;;;;22.80;19.40;;;;;25.28;66.90;99222.13;5051784;28;8883;-75
2022/09/09 05:36:55;;;;;;;;;22.40;20.80;;;;;25.46;66.20;99215.56;5082103;28;8980;-74
2022/09/09 05:39:25;;;;;;;;;24.20;23.60;;;;;25.29;66.04;99208.69;5102329;28;8961;-74
2022/09/09 05:41:55;;;;;;;;;25.80;22.20;;;;;25.52;66.63;99203.63;5088713;28;8909;-75
2022/09/09 05:44:27;;;;;;;;;28.40;26.80;;;;;25.69;66.28;99191.78;5089522;28;8987;-76
2022/09/09 05:46:58;;;;;;;;;19.40;18.80;;;;;25.76;65.45;99197.53;5091155;28;8848;-75
2022/09/09 05:49:27;;;;;;;;;29.20;23.60;;;;;25.86;64.52;99193.28;5058618;28;8836;-76
2022/09/09 05:51:56;;;;;;;;;19.60;19.60;;;;;25.95;64.68;99197.16;5087334;28;9636;-74
2022/09/09 05:54:25;;;;;;;;;21.40;18.80;;;;;26.12;64.71;99188.81;5095064;27;8863;-74
2022/09/09 05:56:55;;;;;;;;;24.00;24.00;;;;;26.22;62.99;99179.19;5080048;28;8882;-75
2022/09/09 05:59:24;;;;;;;;;23.20;19.40;;;;;26.34;63.08;99179.28;5067006;28;8851;-72
2022/09/09 06:01:57;;;;;;;;;23.40;23.40;;;;;26.36;63.00;99172.00;5087833;28;8854;-74
2022/09/09 06:04:31;;;;;;;;;26.40;24.60;;;;;26.37;62.50;99161.19;5088161;28;8886;-77
2022/09/09 06:07:02;;;;;;;;;19.20;17.00;;;;;26.40;62.15;99166.28;5085912;28;8936;-78
2022/09/09 06:09:31;;;;;;;;;26.00;21.20;;;;;25.51;65.33;99158.31;5071936;28;8867;-77
2022/09/09 06:12:00;;;;;;;;;24.00;23.00;;;;;25.18;67.76;99156.94;5087761;28;8936;-75
2022/09/09 06:14:28;;;;;;;;;20.20;20.20;;;;;24.74;68.79;99156.25;5018239;28;9581;-74
2022/09/09 06:17:02;;;;;;;;;22.60;21.00;;;;;24.19;72.10;99157.97;5115239;27;8868;-76
2022/09/09 06:19:32;;;;;;;;;22.60;22.60;;;;;23.83;74.33;99145.13;5096367;28;8997;-76
2022/09/09 06:22:01;;;;;;;;;23.20;21.80;;;;;23.67;75.11;99150.53;5079200;28;9030;-78
2022/09/09 06:24:32;;;;;;;;;22.80;22.80;;;;;23.72;75.93;99151.09;5085438;28;8846;-75
2022/09/09 06:27:02;;;;;;;;;24.00;21.40;;;;;24.10;74.56;99142.56;5078265;28;8904;-77
2022/09/09 06:29:35;;;;;;;;;20.20;20.20;;;;;24.09;73.71;99148.84;5083127;28;8846;-74
2022/09/09 06:32:05;;;;;;;;;23.40;23.40;;;;;24.24;73.32;99142.56;5084616;28;9637;-73
2022/09/09 06:34:33;;;;;;;;;24.40;23.00;;;;;24.82;71.79;99134.41;5081649;28;8879;-75
2022/09/09 06:37:04;;;;;;;;;21.40;20.40;;;;;25.21;70.22;99130.06;5088703;28;8851;-75
2022/09/09 06:39:41;;;;;;;;;19.40;17.80;;;;;25.53;68.49;99135.88;5077108;28;9594;-74
2022/09/09 06:42:10;;;;;;;;;21.40;21.20;;;;;25.84;66.29;99165.81;5093943;28;8851;-73
2022/09/09 06:44:57;;;;;;;;;23.00;22.40;;;;;26.08;66.22;99176.63;5042909;28;8900;-75
2022/09/09 06:47:42;;;;;;;;;22.60;21.40;;;;;26.37;66.43;99193.28;5045909;28;8847;-76
2022/09/09 06:50:10;;;;;;;;;21.20;20.80;;;;;26.46;65.80;99197.09;5063103;28;9676;-75
2022/09/09 06:52:40;;;;;;;;;22.20;21.40;;;;;26.52;65.55;99207.38;5030548;28;8852;-72
2022/09/09 06:55:11;;;;;;;;;22.60;21.40;;;;;26.53;65.66;99210.88;5062943;28;8886;-66
2022/09/09 06:57:40;;;;;;;;;27.20;22.60;;;;;26.72;65.09;99216.63;5087678;28;8847;-71
2022/09/09 07:00:18;;;;;;;;;21.00;19.60;;;;;26.89;64.36;99220.75;5088508;28;8864;-68
2022/09/09 07:02:48;;;;;;;;;20.80;20.60;;;;;27.00;63.73;99217.28;5085744;28;8812;-67
2022/09/09 07:05:16;;;;;;;;;27.80;24.00;;;;;27.15;63.51;99226.88;5066634;28;8934;-67
2022/09/09 07:07:47;;;;;;;;;14.00;11.40;;;;;27.05;62.88;99241.88;5069582;28;8927;-70
2022/09/09 07:10:19;;;;;;;;;21.80;20.20;;;;;27.20;62.57;99245.25;5086220;28;8889;-70
2022/09/09 07:12:52;;;;;;;;;20.00;19.00;;;;;27.21;62.31;99239.78;5102303;28;8823;-68
2022/09/09 07:15:23;;;;;;;;;23.60;21.40;;;;;27.28;61.95;99252.75;5090977;28;9005;-74
2022/09/09 07:17:53;;;;;;;;;24.40;20.20;;;;;27.24;61.71;99249.44;5094627;27;8847;-77
2022/09/09 07:20:22;;;;;;;;;22.20;18.40;;;;;27.32;61.05;99243.53;5080389;28;8934;-79
2022/09/09 07:22:55;;;;;;;;;23.40;22.60;;;;;27.38;60.73;99243.91;5009653;28;8855;-76
2022/09/09 07:25:24;;;;;;;;;22.00;21.00;;;;;27.44;59.81;99242.59;5053242;28;8930;-78
2022/09/09 07:27:57;;;;;;;;;16.40;14.00;;;;;27.21;60.51;99247.81;5069280;28;8888;-75
2022/09/09 07:30:26;;;;;;;;;18.00;17.40;;;;;27.27;60.53;99256.41;5035164;28;9610;-75
2022/09/09 07:32:59;;;;;;;;;18.60;17.60;;;;;27.37;60.71;99249.38;5034116;28;8868;-78
2022/09/09 07:35:28;;;;;;;;;22.00;20.60;;;;;27.39;59.96;99260.81;5033741;28;8844;-76
2022/09/09 07:37:58;;;;;;;;;21.40;20.40;;;;;27.36;59.49;99261.06;5034750;28;8844;-74
2022/09/09 07:40:27;;;;;;;;;24.00;22.80;;;;;27.26;59.77;99266.25;5032739;28;8948;-74
2022/09/09 07:42:56;;;;;;;;;19.80;18.20;;;;;27.39;59.15;99263.50;5048884;28;8839;-76
2022/09/09 07:45:24;;;;;;;;;20.40;20.40;;;;;27.40;58.90;99275.94;5068312;28;8856;-77
2022/09/09 07:47:53;;;;;;;;;22.60;19.80;;;;;27.40;58.51;99268.75;5051024;28;8856;-79
2022/09/09 07:50:24;;;;;;;;;18.00;16.60;;;;;27.39;58.34;99269.72;5068643;28;8848;-79
2022/09/09 07:52:53;;;;;;;;;14.20;14.20;;;;;27.44;58.05;99272.06;5071889;28;8945;-79
2022/09/09 07:55:25;;;;;;;;;19.20;18.00;;;;;27.54;57.58;99266.84;5099042;28;9619;-79
2022/09/09 07:57:54;;;;;;;;;24.80;23.00;;;;;27.38;57.84;99272.53;5066799;28;8946;-81
2022/09/09 08:00:24;;;;;;;;;21.80;21.20;;;;;26.97;58.78;99277.25;5046615;28;8840;-77
2022/09/09 08:02:56;;;;;;;;;26.80;23.60;;;;;27.07;58.57;99290.81;5040176;28;8836;-83
2022/09/09 08:05:27;;;;;;;;;21.40;21.40;;;;;26.70;59.67;99285.44;5049042;28;8852;-81
2022/09/09 08:07:56;;;;;;;;;21.20;20.20;;;;;26.77;59.43;99292.06;5049748;28;8848;-80
2022/09/09 08:10:25;;;;;;;;;19.80;18.80;;;;;26.53;60.70;99291.97;5035307;28;8864;-80
2022/09/09 08:12:56;;;;;;;;;23.40;22.20;;;;;26.44;61.14;99292.63;5048543;28;8858;-79
2022/09/09 08:15:45;;;;;;;;;20.40;19.60;;;;;26.38;60.91;99288.56;5035099;28;9084;-78
2022/09/09 08:18:14;;;;;;;;;23.60;21.20;;;;;26.38;61.85;99285.88;5051333;28;8844;-78
2022/09/09 08:20:46;;;;;;;;;24.00;21.80;;;;;26.75;60.45;99269.94;5033152;28;8920;-77
2022/09/09 08:23:15;;;;;;;;;26.80;25.00;;;;;26.78;60.01;99271.53;5039809;28;8838;-78
2022/09/09 08:25:45;;;;;;;;;25.40;23.60;;;;;26.95;59.95;99281.84;5025164;28;8892;-76
2022/09/09 08:28:14;;;;;;;;;24.00;23.20;;;;;27.25;58.69;99274.38;4989062;28;8912;-77
2022/09/09 08:30:43;;;;;;;;;23.40;21.60;;;;;27.35;58.14;99278.09;4996266;28;8862;-78
2022/09/09 08:33:12;;;;;;;;;23.40;22.20;;;;;27.46;58.25;99264.75;5030531;28;10071;-81
2022/09/09 08:35:52;;;;;;;;;27.00;24.60;;;;;27.74;57.25;99257.31;5059243;28;8997;-78
2022/09/09 08:38:22;;;;;;;;;24.00;23.00;;;;;27.60;57.30;99255.69;5010940;28;9655;-77
2022/09/09 08:40:55;;;;;;;;;27.40;25.60;;;;;27.87;56.66;99247.34;5028332;28;8870;-77
2022/09/09 08:43:25;;;;;;;;;21.60;20.40;;;;;28.06;55.71;99252.19;5045468;28;8896;-78
2022/09/09 08:46:03;;;;;;;;;27.40;27.00;;;;;27.97;55.45;99242.16;5012369;28;8874;-75
2022/09/09 08:48:46;;;;;;;;;27.80;27.60;;;;;28.00;56.47;99239.25;5029526;28;8886;-78
2022/09/09 08:51:17;;;;;;;;;24.60;24.40;;;;;28.15;54.22;99239.88;4979712;28;8878;-79
2022/09/09 08:53:52;;;;;;;;;24.20;22.80;;;;;28.33;54.55;99238.41;5014754;28;8858;-81
2022/09/09 08:56:29;;;;;;;;;18.80;18.40;;;;;28.39;54.67;99240.63;5028268;28;8917;-79
2022/09/09 08:59:03;;;;;;;;;20.20;20.20;;;;;28.61;52.37;99238.09;5074892;28;8978;-79
2022/09/09 09:01:54;;;;;;;;;18.80;18.00;;;;;28.33;53.09;99233.06;5070395;28;8871;-78
2022/09/09 09:04:39;;;;;;;;;23.00;21.20;;;;;28.44;53.90;99234.88;5070415;28;8867;-79
2022/09/09 09:07:22;;;;;;;;;19.00;18.60;;;;;28.46;52.41;99234.78;5084469;28;8965;-80
2022/09/09 09:10:02;;;;;;;;;18.20;18.00;;;;;28.56;51.42;99233.94;5097401;28;8844;-78
2022/09/09 09:12:41;;;;;;;;;17.00;17.00;;;;;27.98;53.28;99235.84;5067227;28;8854;-84
2022/09/09 09:15:17;;;;;;;;;20.60;20.20;;;;;28.62;52.26;99234.41;5108452;28;8844;-77
2022/09/09 09:17:48;;;;;;;;;20.40;19.60;;;;;28.94;50.78;99231.78;5088749;28;8839;-77
2022/09/09 09:20:22;;;;;;;;;21.40;19.60;;;;;28.92;50.75;99228.38;5080722;28;8922;-76
2022/09/09 09:22:58;;;;;;;;;24.80;20.40;;;;;29.25;49.86;99232.84;5088511;28;9589;-78
2022/09/09 09:25:32;;;;;;;;;21.00;18.20;;;;;29.31;49.17;99242.22;5033276;28;9649;-76
2022/09/09 09:28:06;;;;;;;;;22.00;18.20;;;;;29.16;49.42;99236.28;5084516;28;8897;-75
2022/09/09 09:30:43;;;;;;;;;20.20;19.80;;;;;28.87;49.26;99242.19;5082745;28;8849;-66
2022/09/09 09:33:20;;;;;;;;;21.60;21.20;;;;;29.16;48.73;99239.81;5071862;28;8862;-67
2022/09/09 09:35:51;;;;;;;;;18.20;16.60;;;;;29.15;48.60;99240.81;5082847;28;8848;-68
2022/09/09 09:38:25;;;;;;;;;29.60;26.80;;;;;28.66;49.29;99235.88;5083091;28;8970;-67
2022/09/09 09:41:14;;;;;;;;;21.00;19.20;;;;;28.80;49.21;99232.94;5070925;28;8944;-70
2022/09/09 09:43:43;;;;;;;;;21.20;20.20;;;;;29.10;49.24;99228.72;5086270;28;8864;-72
2022/09/09 09:46:23;;;;;;;;;19.60;18.80;;;;;29.46;48.63;99223.97;5022373;28;8859;-75
2022/09/09 09:49:02;;;;;;;;;19.60;17.60;;;;;29.82;48.93;99224.53;5102931;28;8869;-70
2022/09/09 09:51:34;;;;;;;;;21.00;21.00;;;;;29.98;49.61;99230.31;5120174;28;8986;-69
2022/09/09 09:54:16;;;;;;;;;19.60;19.60;;;;;30.33;48.72;99230.94;5086638;28;8856;-69
2022/09/09 09:56:49;;;;;;;;;17.00;17.00;;;;;30.28;48.52;99232.16;5081724;28;8866;-69
2022/09/09 09:59:35;;;;;;;;;20.40;20.00;;;;;30.49;47.65;99224.06;5065478;28;8873;-70
2022/09/09 10:02:17;;;;;;;;;22.60;22.60;;;;;30.56;46.14;99227.03;5082848;28;8867;-70
2022/09/09 10:04:49;;;;;;;;;19.60;18.20;;;;;30.39;46.75;99222.31;5084667;28;9693;-71
2022/09/09 10:07:21;;;;;;;;;24.80;24.20;;;;;29.32;49.15;99217.91;5084980;28;8852;-71
2022/09/09 10:09:54;;;;;;;;;23.00;22.60;;;;;28.82;50.55;99222.06;5085164;28;8872;-70
2022/09/09 10:12:38;;;;;;;;;24.00;24.00;;;;;28.80;50.92;99222.19;5066813;28;8870;-69
2022/09/09 10:15:24;;;;;;;;;21.40;19.20;;;;;29.01;50.50;99224.94;5084528;28;8936;-68
2022/09/09 10:18:01;;;;;;;;;22.60;21.80;;;;;29.19;50.49;99214.56;5087291;28;9638;-70
2022/09/09 10:20:44;;;;;;;;;23.40;22.00;;;;;29.47;49.51;99220.28;5101568;28;8851;-69
2022/09/09 10:23:26;;;;;;;;;20.80;20.00;;;;;29.60;48.49;99220.94;5083607;28;8888;-70
2022/09/09 10:26:14;;;;;;;;;22.40;21.60;;;;;29.90;48.67;99209.44;5086696;28;8880;-71
2022/09/09 10:29:04;;;;;;;;;20.80;20.80;;;;;30.22;47.48;99205.78;5088022;28;8898;-71
2022/09/09 10:31:42;;;;;;;;;18.40;18.40;;;;;30.30;45.52;99207.78;5087690;28;8985;-70
2022/09/09 10:34:27;;;;;;;;;24.40;23.40;;;;;30.11;46.69;99204.03;5088016;28;8937;-70
2022/09/09 10:37:00;;;;;;;;;16.00;15.60;;;;;30.02;45.47;99201.28;5088022;28;8856;-70
2022/09/09 10:39:36;;;;;;;;;20.60;19.80;;;;;30.21;46.33;99198.72;5089475;28;9662;-71
2022/09/09 10:42:15;;;;;;;;;22.60;21.40;;;;;30.50;46.35;99188.06;5089696;28;9530;-73
2022/09/09 10:44:56;;;;;;;;;21.20;20.40;;;;;30.79;45.46;99189.97;5081114;28;8835;-72
2022/09/09 10:47:49;;;;;;;;;23.20;21.80;;;;;30.99;44.77;99190.06;5089704;28;9493;-70
2022/09/09 10:50:42;;;;;;;;;22.40;22.00;;;;;31.22;44.46;99183.38;5086692;28;8835;-75
2022/09/09 10:53:44;;;;;;;;;20.60;19.40;;;;;31.31;44.16;99181.69;5088379;28;8886;-71
2022/09/09 10:56:16;;;;;;;;;27.20;25.00;;;;;31.34;43.81;99175.16;5088911;28;8865;-71
2022/09/09 10:58:52;;;;;;;;;19.20;18.20;;;;;31.56;43.19;99176.72;5089971;28;8941;-70
2022/09/09 11:01:26;;;;;;;;;20.40;19.60;;;;;31.68;43.09;99178.25;5086005;28;8843;-72
2022/09/09 11:04:02;;;;;;;;;20.80;20.80;;;;;31.81;43.06;99194.13;5085849;28;8879;-70
2022/09/09 11:06:38;;;;;;;;;19.80;18.80;;;;;31.82;42.84;99179.66;5071186;28;8871;-69
2022/09/09 11:09:07;;;;;;;;;20.80;20.00;;;;;31.74;42.79;99182.22;5042898;28;8871;-71
2022/09/09 11:11:40;;;;;;;;;15.60;15.60;;;;;31.26;43.64;99189.34;5055570;28;8874;-70
2022/09/09 11:14:20;;;;;;;;;19.40;18.60;;;;;31.51;43.43;99181.69;5085685;28;8886;-71
2022/09/09 11:16:53;;;;;;;;;29.00;22.40;;;;;31.49;43.59;99179.13;5080581;28;8847;-71
2022/09/09 11:19:29;;;;;;;;;21.20;19.60;;;;;31.62;43.88;99173.44;5089793;28;8862;-74
2022/09/09 11:22:00;;;;;;;;;18.40;18.40;;;;;31.65;42.88;99159.69;5089823;28;8859;-72
2022/09/09 11:24:34;;;;;;;;;19.40;17.80;;;;;31.88;43.27;99167.44;5084776;28;9047;-74
2022/09/09 11:27:12;;;;;;;;;19.80;19.40;;;;;32.20;41.45;99162.50;5080924;28;8948;-71
2022/09/09 11:29:57;;;;;;;;;19.60;19.60;;;;;32.49;40.21;99156.09;5085443;28;8869;-71
2022/09/09 11:32:45;;;;;;;;;15.40;14.00;;;;;32.81;39.40;99154.78;5085857;28;8873;-70
2022/09/09 11:35:32;;;;;;;;;16.60;15.00;;;;;33.16;38.62;99158.56;5089295;28;8855;-71
2022/09/09 11:38:18;;;;;;;;;22.80;22.80;;;;;33.00;38.16;99159.19;5051400;28;8880;-69
2022/09/09 11:40:48;;;;;;;;;17.40;16.20;;;;;32.94;37.57;99149.03;5053070;28;8856;-71
2022/09/09 11:43:25;;;;;;;;;13.00;12.80;;;;;32.90;36.48;99144.94;5082549;28;8842;-71
2022/09/09 11:45:58;;;;;;;;;13.00;12.80;;;;;33.25;36.95;99145.94;5070046;28;8866;-70
2022/09/09 11:48:43;;;;;;;;;15.60;14.60;;;;;33.63;36.65;99135.75;5069587;28;8846;-73
2022/09/09 11:51:13;;;;;;;;;14.00;13.00;;;;;33.88;36.45;99132.22;5068473;28;8870;-70
2022/09/09 11:53:52;;;;;;;;;14.80;14.40;;;;;34.21;35.74;99134.25;5067425;28;8862;-71
2022/09/09 11:56:32;;;;;;;;;19.40;17.20;;;;;34.33;35.48;99135.66;5069149;28;8960;-70